createdAt,value
2023-01-13T00:00:20.110Z,91.37
2023-01-13T00:01:24.141Z,91.37
2023-01-13T00:02:25.949Z,91.38
2023-01-13T00:03:27.876Z,91.21
2023-01-13T00:04:30.505Z,91.28
2023-01-13T00:05:32.543Z,91.18
2023-01-13T00:06:34.299Z,91.10
2023-01-13T00:07:35.987Z,91.19
2023-01-13T00:08:37.644Z,91.18
2023-01-13T00:09:39.341Z,91.14
2023-01-13T00:10:41.066Z,90.93
2023-01-13T00:11:42.910Z,90.67
2023-01-13T00:12:44.635Z,90.79
2023-01-13T00:13:46.411Z,90.65
2023-01-13T00:14:48.099Z,90.73
2023-01-13T00:15:59.888Z,90.67
2023-01-13T00:17:02.481Z,90.86
2023-01-13T00:18:04.210Z,90.67
2023-01-13T00:19:05.893Z,90.80
2023-01-13T00:20:08.391Z,90.76
2023-01-13T00:21:16.074Z,90.75
2023-01-13T00:22:17.870Z,90.69
2023-01-13T00:23:19.594Z,90.69
2023-01-13T00:24:21.508Z,90.57
2023-01-13T00:25:23.191Z,90.66
2023-01-13T00:26:28.419Z,90.56
2023-01-13T00:27:30.552Z,90.36
2023-01-13T00:28:32.872Z,90.42
2023-01-13T00:29:34.599Z,90.34
2023-01-13T00:30:36.409Z,90.56
2023-01-13T00:31:38.119Z,90.64
2023-01-13T00:32:39.880Z,90.63
2023-01-13T00:33:41.812Z,90.76
2023-01-13T00:34:43.533Z,90.63
2023-01-13T00:35:45.387Z,90.81
2023-01-13T00:36:47.232Z,90.82
2023-01-13T00:37:48.867Z,90.85
2023-01-13T00:38:50.613Z,90.83
2023-01-13T00:39:52.809Z,90.98
2023-01-13T00:41:06.065Z,90.82
2023-01-13T00:42:08.385Z,90.66
2023-01-13T00:43:10.067Z,90.97
2023-01-13T00:44:11.716Z,90.89
2023-01-13T00:45:13.372Z,91.12
2023-01-13T00:46:18.180Z,90.68
2023-01-13T00:47:19.852Z,90.98
2023-01-13T00:48:23.145Z,90.60
2023-01-13T00:49:24.969Z,90.61
2023-01-13T00:50:26.599Z,90.49
2023-01-13T00:51:28.288Z,90.33
2023-01-13T00:52:32.432Z,89.89
2023-01-13T00:53:39.509Z,89.93
2023-01-13T00:54:41.205Z,89.59
2023-01-13T00:55:42.928Z,89.70
2023-01-13T00:56:44.658Z,89.56
2023-01-13T00:57:46.535Z,89.51
2023-01-13T00:58:48.213Z,89.45
2023-01-13T00:59:49.839Z,89.22
2023-01-13T01:00:51.587Z,89.35
2023-01-13T01:01:53.438Z,89.30
2023-01-13T01:02:55.292Z,89.18
2023-01-13T01:03:56.970Z,89.59
2023-01-13T01:04:58.593Z,89.54
2023-01-13T01:06:09.727Z,89.63
2023-01-13T01:07:11.434Z,89.85
2023-01-13T01:08:13.148Z,90.15
2023-01-13T01:09:16.150Z,90.06
2023-01-13T01:10:17.875Z,90.18
2023-01-13T01:11:23.202Z,90.46
2023-01-13T01:12:24.879Z,90.56
2023-01-13T01:13:26.552Z,90.58
2023-01-13T01:14:28.481Z,90.73
2023-01-13T01:15:30.223Z,90.82
2023-01-13T01:16:33.442Z,90.73
2023-01-13T01:17:35.413Z,90.66
2023-01-13T01:18:39.897Z,90.84
2023-01-13T01:19:41.572Z,90.86
2023-01-13T01:20:43.235Z,90.87
2023-01-13T01:21:45.045Z,91.03
2023-01-13T01:22:46.731Z,91.06
2023-01-13T01:23:48.754Z,91.03
2023-01-13T01:24:50.356Z,91.07
2023-01-13T01:25:52.014Z,91.00
2023-01-13T01:26:54.008Z,91.32
2023-01-13T01:27:55.755Z,91.21
2023-01-13T01:28:57.468Z,91.28
2023-01-13T01:29:59.104Z,91.08
2023-01-13T01:31:05.616Z,91.31
2023-01-13T01:32:07.331Z,91.28
2023-01-13T01:33:08.964Z,91.28
2023-01-13T01:34:11.150Z,91.44
2023-01-13T01:35:12.779Z,91.06
2023-01-13T01:36:16.686Z,91.21
2023-01-13T01:37:18.439Z,90.98
2023-01-13T01:38:20.756Z,90.84
2023-01-13T01:39:22.482Z,90.52
2023-01-13T01:40:24.180Z,90.44
2023-01-13T01:41:28.787Z,90.27
2023-01-13T01:42:30.560Z,90.16
2023-01-13T01:44:05.300Z,90.04
2023-01-13T01:45:20.786Z,89.92
2023-01-13T01:46:22.452Z,89.61
2023-01-13T01:47:25.538Z,89.56
2023-01-13T01:48:29.625Z,89.25
2023-01-13T01:49:36.908Z,88.85
2023-01-13T01:50:40.066Z,88.54
2023-01-13T01:51:49.876Z,88.60
2023-01-13T01:52:59.752Z,88.18
2023-01-13T01:54:04.347Z,87.76
2023-01-13T01:55:18.203Z,87.51
2023-01-13T01:56:21.085Z,87.56
2023-01-13T01:57:39.565Z,87.25
2023-01-13T01:58:48.892Z,86.95
2023-01-13T01:59:50.880Z,86.86
2023-01-13T02:00:52.748Z,86.90
2023-01-13T02:01:54.885Z,86.98
2023-01-13T02:02:57.413Z,86.88
2023-01-13T02:04:05.646Z,87.39
2023-01-13T02:05:07.766Z,87.31
2023-01-13T02:07:28.505Z,87.14
2023-01-13T02:08:30.580Z,87.40
2023-01-13T02:09:33.326Z,87.53
2023-01-13T02:10:36.342Z,87.63
2023-01-13T02:11:38.282Z,87.64
2023-01-13T02:12:42.308Z,87.63
2023-01-13T02:13:43.947Z,87.55
2023-01-13T02:14:45.782Z,88.34
2023-01-13T02:16:03.463Z,88.57
2023-01-13T02:17:08.092Z,88.90
2023-01-13T02:18:32.660Z,89.08
2023-01-13T02:19:52.760Z,89.31
2023-01-13T02:21:18.173Z,89.17
2023-01-13T02:22:37.645Z,89.37
2023-01-13T02:23:57.692Z,89.14
2023-01-13T02:25:15.286Z,89.05
2023-01-13T02:26:34.906Z,88.86
2023-01-13T02:27:44.302Z,88.60
2023-01-13T02:29:10.640Z,88.80
2023-01-13T02:30:42.873Z,88.80
2023-01-13T02:31:48.619Z,88.78
2023-01-13T02:33:42.393Z,88.84
2023-01-13T02:34:55.375Z,89.08
2023-01-13T02:36:35.455Z,89.14
2023-01-13T02:37:40.706Z,89.21
2023-01-13T02:38:56.717Z,89.12
2023-01-13T02:40:07.365Z,89.45
2023-01-13T02:41:18.994Z,89.57
2023-01-13T02:42:41.404Z,89.99
2023-01-13T02:43:43.695Z,89.83
2023-01-13T02:45:04.812Z,89.79
2023-01-13T02:46:23.923Z,89.89
2023-01-13T02:47:27.419Z,89.88
2023-01-13T02:48:31.643Z,89.80
2023-01-13T02:49:42.510Z,89.87
2023-01-13T02:50:54.109Z,89.71
2023-01-13T02:52:02.101Z,89.55
2023-01-13T02:53:20.259Z,89.74
2023-01-13T02:54:27.454Z,89.22
2023-01-13T02:55:37.955Z,89.24
2023-01-13T02:56:44.323Z,89.12
2023-01-13T02:57:48.361Z,89.19
2023-01-13T02:58:51.374Z,89.08
2023-01-13T02:59:55.762Z,88.80
2023-01-13T03:00:57.721Z,89.16
2023-01-13T03:01:59.825Z,89.12
2023-01-13T03:03:02.015Z,89.31
2023-01-13T03:04:14.541Z,89.48
2023-01-13T03:05:17.694Z,89.37
2023-01-13T03:06:41.739Z,89.79
2023-01-13T03:08:11.878Z,89.74
2023-01-13T03:09:27.971Z,89.56
2023-01-13T03:10:51.535Z,89.44
2023-01-13T03:12:17.561Z,89.62
2023-01-13T03:13:25.167Z,89.59
2023-01-13T03:14:56.647Z,89.62
2023-01-13T03:16:28.351Z,89.27
2023-01-13T03:17:49.485Z,89.60
2023-01-13T03:18:55.481Z,89.35
2023-01-13T03:20:16.072Z,89.32
2023-01-13T03:21:23.764Z,89.60
2023-01-13T03:22:44.977Z,89.35
2023-01-13T03:23:52.885Z,89.36
2023-01-13T03:25:35.256Z,89.21
2023-01-13T03:26:42.713Z,89.27
2023-01-13T03:27:53.809Z,89.11
2023-01-13T03:29:14.163Z,89.23
2023-01-13T03:30:41.951Z,89.32
2023-01-13T03:31:57.401Z,89.53
2023-01-13T03:33:09.238Z,89.53
2023-01-13T03:34:18.628Z,89.42
2023-01-13T03:35:34.388Z,89.23
2023-01-13T03:36:39.539Z,89.30
2023-01-13T03:37:47.610Z,89.66
2023-01-13T03:38:54.377Z,89.32
2023-01-13T03:40:02.507Z,89.43
2023-01-13T03:41:09.104Z,89.54
2023-01-13T03:42:20.683Z,89.53
2023-01-13T03:43:34.445Z,89.60
2023-01-13T03:44:52.666Z,89.16
2023-01-13T03:46:02.690Z,89.36
2023-01-13T03:47:11.392Z,89.43
2023-01-13T03:48:18.653Z,89.24
2023-01-13T03:49:24.351Z,89.33
2023-01-13T03:50:32.871Z,89.49
2023-01-13T03:51:39.318Z,89.53
2023-01-13T03:52:47.369Z,89.83
2023-01-13T03:54:01.255Z,89.73
2023-01-13T03:55:10.804Z,90.04
2023-01-13T03:56:19.201Z,90.21
2023-01-13T03:57:26.241Z,90.20
2023-01-13T03:58:33.795Z,90.21
2023-01-13T03:59:41.480Z,90.75
2023-01-13T04:00:58.571Z,90.52
2023-01-13T04:02:18.462Z,90.35
2023-01-13T04:03:27.604Z,90.38
2023-01-13T04:04:34.474Z,90.44
2023-01-13T04:05:42.197Z,90.44
2023-01-13T04:06:56.697Z,90.38
2023-01-13T04:08:09.851Z,90.38
2023-01-13T04:09:18.795Z,90.25
2023-01-13T04:10:46.755Z,89.95
2023-01-13T04:12:17.272Z,89.78
2023-01-13T04:13:23.489Z,89.75
2023-01-13T04:14:27.783Z,89.67
2023-01-13T04:15:34.075Z,89.74
2023-01-13T04:16:37.818Z,89.77
2023-01-13T04:17:39.674Z,89.82
2023-01-13T04:18:41.407Z,89.91
2023-01-13T04:19:43.105Z,90.20
2023-01-13T04:20:47.272Z,90.24
2023-01-13T04:21:48.906Z,90.25
2023-01-13T04:22:50.769Z,90.17
2023-01-13T04:23:52.400Z,90.24
2023-01-13T04:24:54.036Z,90.51
2023-01-13T04:25:56.501Z,90.59
2023-01-13T04:26:58.227Z,90.32
2023-01-13T04:27:59.923Z,90.07
2023-01-13T04:29:01.654Z,89.93
2023-01-13T04:30:04.650Z,89.75
2023-01-13T04:31:06.535Z,89.60
2023-01-13T04:32:08.234Z,89.54
2023-01-13T04:33:10.932Z,89.46
2023-01-13T04:34:12.871Z,89.47
2023-01-13T04:35:14.688Z,89.40
2023-01-13T04:36:16.728Z,89.38
2023-01-13T04:37:18.448Z,89.09
2023-01-13T04:38:21.448Z,88.97
2023-01-13T04:39:23.128Z,89.45
2023-01-13T04:40:24.855Z,89.55
2023-01-13T04:41:26.592Z,89.72
2023-01-13T04:42:28.281Z,89.80
2023-01-13T04:43:30.069Z,89.69
2023-01-13T04:44:31.808Z,89.84
2023-01-13T04:45:34.015Z,89.96
2023-01-13T04:46:35.825Z,90.18
2023-01-13T04:47:37.824Z,90.14
2023-01-13T04:48:39.756Z,90.41
2023-01-13T04:49:41.480Z,90.55
2023-01-13T04:50:43.221Z,90.92
2023-01-13T04:51:44.953Z,91.11
2023-01-13T04:52:47.717Z,90.86
2023-01-13T04:53:49.407Z,91.10
2023-01-13T04:54:51.157Z,91.10
2023-01-13T04:55:52.936Z,91.21
2023-01-13T04:56:54.682Z,91.07
2023-01-13T04:58:00.955Z,90.94
2023-01-13T04:59:02.811Z,91.09
2023-01-13T05:00:10.135Z,90.95
2023-01-13T05:01:11.955Z,91.09
2023-01-13T05:02:13.835Z,91.12
2023-01-13T05:03:15.565Z,91.13
2023-01-13T05:04:17.343Z,91.36
2023-01-13T05:05:19.221Z,91.15
2023-01-13T05:06:21.048Z,91.48
2023-01-13T05:07:22.760Z,91.62
2023-01-13T05:08:24.423Z,91.71
2023-01-13T05:09:26.169Z,91.43
2023-01-13T05:10:28.083Z,91.40
2023-01-13T05:11:29.785Z,91.19
2023-01-13T05:12:31.558Z,91.39
2023-01-13T05:13:33.257Z,91.20
2023-01-13T05:14:34.948Z,91.53
2023-01-13T05:15:36.720Z,91.35
2023-01-13T05:16:38.540Z,91.74
2023-01-13T05:17:41.266Z,91.43
2023-01-13T05:18:43.055Z,91.55
2023-01-13T05:19:44.822Z,91.42
2023-01-13T05:20:46.735Z,91.53
2023-01-13T05:21:48.413Z,91.40
2023-01-13T05:22:50.096Z,91.45
2023-01-13T05:23:51.801Z,91.23
2023-01-13T05:24:53.537Z,91.19
2023-01-13T05:25:55.257Z,91.13
2023-01-13T05:26:56.964Z,90.81
2023-01-13T05:28:00.022Z,90.95
2023-01-13T05:29:01.743Z,90.69
2023-01-13T05:30:04.774Z,90.77
2023-01-13T05:31:06.585Z,91.06
2023-01-13T05:32:08.415Z,90.80
2023-01-13T05:33:11.482Z,90.95
2023-01-13T05:34:13.235Z,91.25
2023-01-13T05:35:15.054Z,91.37
2023-01-13T05:36:16.839Z,91.19
2023-01-13T05:37:18.838Z,91.06
2023-01-13T05:38:20.729Z,91.01
2023-01-13T05:39:22.467Z,91.13
2023-01-13T05:40:24.345Z,91.12
2023-01-13T05:41:26.137Z,91.25
2023-01-13T05:42:28.022Z,91.27
2023-01-13T05:43:30.127Z,91.33
2023-01-13T05:44:31.855Z,91.47
2023-01-13T05:45:33.651Z,91.69
2023-01-13T05:46:35.389Z,91.38
2023-01-13T05:47:37.264Z,91.35
2023-01-13T05:48:41.681Z,91.34
2023-01-13T05:49:43.398Z,91.18
2023-01-13T05:50:46.697Z,91.10
2023-01-13T05:51:48.387Z,91.04
2023-01-13T05:52:50.432Z,90.90
2023-01-13T05:53:52.470Z,90.95
2023-01-13T05:54:54.388Z,90.78
2023-01-13T05:55:56.546Z,90.84
2023-01-13T05:56:58.341Z,90.75
2023-01-13T05:58:00.169Z,90.62
2023-01-13T05:59:01.971Z,90.37
2023-01-13T06:00:05.431Z,90.35
2023-01-13T06:01:09.700Z,90.55
2023-01-13T06:02:11.683Z,90.65
2023-01-13T06:03:13.916Z,90.65
2023-01-13T06:04:15.800Z,90.74
2023-01-13T06:05:17.547Z,90.66
2023-01-13T06:06:19.365Z,90.65
2023-01-13T06:07:21.104Z,90.40
2023-01-13T06:08:22.775Z,90.60
2023-01-13T06:09:24.462Z,90.56
2023-01-13T06:10:27.050Z,90.22
2023-01-13T06:11:28.741Z,90.02
2023-01-13T06:12:30.484Z,90.09
2023-01-13T06:13:32.287Z,90.14
2023-01-13T06:14:36.469Z,89.98
2023-01-13T06:15:38.898Z,89.95
2023-01-13T06:16:40.956Z,89.88
2023-01-13T06:17:42.900Z,89.63
2023-01-13T06:18:44.630Z,89.63
2023-01-13T06:19:46.569Z,89.81
2023-01-13T06:20:48.308Z,89.78
2023-01-13T06:21:50.125Z,89.63
2023-01-13T06:22:53.815Z,89.79
2023-01-13T06:23:56.103Z,89.88
2023-01-13T06:24:58.658Z,89.78
2023-01-13T06:26:16.233Z,89.81
2023-01-13T06:27:18.841Z,89.55
2023-01-13T06:28:20.576Z,89.74
2023-01-13T06:29:22.297Z,89.87
2023-01-13T06:30:24.158Z,89.63
2023-01-13T06:31:27.269Z,89.74
2023-01-13T06:32:34.214Z,89.55
2023-01-13T06:33:43.892Z,88.89
2023-01-13T06:34:51.509Z,88.97
2023-01-13T06:35:58.251Z,88.63
2023-01-13T06:37:00.808Z,88.69
2023-01-13T06:38:05.954Z,88.71
2023-01-13T06:39:09.219Z,88.67
2023-01-13T06:40:13.865Z,88.48
2023-01-13T06:41:16.790Z,88.35
2023-01-13T06:42:18.562Z,88.06
2023-01-13T06:43:20.474Z,88.23
2023-01-13T06:44:23.948Z,88.35
2023-01-13T06:45:27.816Z,88.50
2023-01-13T06:46:29.847Z,88.75
2023-01-13T06:47:31.901Z,88.66
2023-01-13T06:48:34.691Z,88.67
2023-01-13T06:49:36.375Z,88.38
2023-01-13T06:50:38.311Z,88.52
2023-01-13T06:51:40.097Z,88.48
2023-01-13T06:52:41.741Z,88.25
2023-01-13T06:53:43.668Z,88.55
2023-01-13T06:54:45.453Z,88.53
2023-01-13T06:55:47.426Z,88.64
2023-01-13T06:56:49.166Z,88.69
2023-01-13T06:57:53.464Z,88.32
2023-01-13T06:58:55.200Z,88.18
2023-01-13T06:59:56.952Z,88.38
2023-01-13T07:01:02.210Z,88.52
2023-01-13T07:02:04.191Z,88.61
2023-01-13T07:03:10.954Z,88.38
2023-01-13T07:04:12.708Z,88.63
2023-01-13T07:05:15.215Z,88.50
2023-01-13T07:06:16.988Z,88.95
2023-01-13T07:07:18.642Z,88.68
2023-01-13T07:08:20.531Z,88.82
2023-01-13T07:09:22.259Z,88.93
2023-01-13T07:10:23.916Z,88.86
2023-01-13T07:11:25.669Z,88.85
2023-01-13T07:12:27.325Z,89.01
2023-01-13T07:13:28.955Z,88.95
2023-01-13T07:14:30.710Z,88.89
2023-01-13T07:15:32.565Z,88.72
2023-01-13T07:16:34.505Z,88.76
2023-01-13T07:17:36.259Z,88.38
2023-01-13T07:18:38.302Z,88.45
2023-01-13T07:19:40.045Z,88.52
2023-01-13T07:20:41.730Z,88.32
2023-01-13T07:21:43.491Z,88.74
2023-01-13T07:22:45.975Z,88.98
2023-01-13T07:23:48.464Z,89.13
2023-01-13T07:24:50.339Z,88.55
2023-01-13T07:25:52.059Z,88.04
2023-01-13T07:26:53.816Z,87.87
2023-01-13T07:27:57.726Z,87.54
2023-01-13T07:28:59.444Z,87.16
2023-01-13T07:30:01.129Z,87.41
2023-01-13T07:31:03.859Z,87.63
2023-01-13T07:32:05.987Z,87.48
2023-01-13T07:33:07.871Z,87.20
2023-01-13T07:34:09.596Z,86.79
2023-01-13T07:35:11.549Z,86.69
2023-01-13T07:36:14.192Z,86.48
2023-01-13T07:37:16.366Z,86.91
2023-01-13T07:38:18.093Z,86.61
2023-01-13T07:39:19.856Z,86.89
2023-01-13T07:40:21.567Z,86.91
2023-01-13T07:41:23.880Z,86.40
2023-01-13T07:42:25.908Z,85.78
2023-01-13T07:43:27.614Z,85.65
2023-01-13T07:44:29.394Z,86.00
2023-01-13T07:45:31.106Z,85.92
2023-01-13T07:46:33.817Z,85.70
2023-01-13T07:47:35.583Z,85.72
2023-01-13T07:48:37.250Z,86.18
2023-01-13T07:49:39.102Z,85.90
2023-01-13T07:50:42.731Z,85.87
2023-01-13T07:51:45.708Z,85.83
2023-01-13T07:52:47.693Z,85.54
2023-01-13T07:53:49.368Z,85.53
2023-01-13T07:54:51.064Z,85.36
2023-01-13T07:55:56.647Z,85.63
2023-01-13T07:56:58.320Z,85.47
2023-01-13T07:58:00.141Z,85.35
2023-01-13T07:59:02.453Z,85.23
2023-01-13T08:00:05.469Z,85.17
2023-01-13T08:01:13.427Z,85.16
2023-01-13T08:02:15.405Z,84.36
2023-01-13T08:03:17.320Z,83.82
2023-01-13T08:04:19.102Z,83.89
2023-01-13T08:05:20.921Z,84.13
2023-01-13T08:06:22.854Z,83.84
2023-01-13T08:07:31.108Z,84.09
2023-01-13T08:08:33.157Z,83.19
2023-01-13T08:09:35.039Z,83.31
2023-01-13T08:10:36.856Z,83.29
2023-01-13T08:11:38.581Z,83.23
2023-01-13T08:12:40.327Z,83.66
2023-01-13T08:13:57.541Z,83.23
2023-01-13T08:14:59.206Z,82.93
2023-01-13T08:16:07.069Z,82.65
2023-01-13T08:17:09.828Z,82.58
2023-01-13T08:18:12.320Z,82.94
2023-01-13T08:19:14.181Z,83.02
2023-01-13T08:20:16.146Z,82.54
2023-01-13T08:21:18.036Z,82.26
2023-01-13T08:22:19.819Z,82.11
2023-01-13T08:23:23.004Z,81.85
2023-01-13T08:24:24.802Z,81.43
2023-01-13T08:25:28.675Z,81.11
2023-01-13T08:26:30.354Z,80.29
2023-01-13T08:27:32.064Z,80.48
2023-01-13T08:28:34.122Z,80.49
2023-01-13T08:29:36.050Z,81.13
2023-01-13T08:30:37.950Z,81.01
2023-01-13T08:31:39.752Z,80.49
2023-01-13T08:32:44.362Z,80.62
2023-01-13T08:33:46.338Z,80.27
2023-01-13T08:34:48.069Z,79.28
2023-01-13T08:35:49.998Z,79.39
2023-01-13T08:36:52.105Z,79.05
2023-01-13T08:37:54.023Z,78.95
2023-01-13T08:38:55.689Z,79.15
2023-01-13T08:39:57.325Z,78.38
2023-01-13T08:40:59.159Z,78.37
2023-01-13T08:42:00.985Z,78.46
2023-01-13T08:43:02.752Z,78.51
2023-01-13T08:44:05.933Z,78.52
2023-01-13T08:45:08.900Z,79.15
2023-01-13T08:46:10.624Z,79.06
2023-01-13T08:47:12.410Z,78.67
2023-01-13T08:48:14.148Z,77.91
2023-01-13T08:49:16.790Z,77.61
2023-01-13T08:50:19.278Z,77.96
2023-01-13T08:51:21.000Z,77.97
2023-01-13T08:52:22.905Z,77.84
2023-01-13T08:53:24.617Z,78.88
2023-01-13T08:54:26.326Z,78.84
2023-01-13T08:55:28.019Z,77.92
2023-01-13T08:56:32.764Z,76.96
2023-01-13T08:57:35.971Z,77.00
2023-01-13T08:58:37.681Z,77.15
2023-01-13T08:59:39.439Z,76.39
2023-01-13T09:00:41.245Z,76.09
2023-01-13T09:01:43.430Z,76.53
2023-01-13T09:02:45.258Z,76.17
2023-01-13T09:03:47.062Z,75.69
2023-01-13T09:04:50.076Z,74.71
2023-01-13T09:05:51.883Z,75.28
2023-01-13T09:06:54.710Z,74.68
2023-01-13T09:07:56.376Z,73.81
2023-01-13T09:08:59.089Z,73.71
2023-01-13T09:10:01.749Z,73.63
2023-01-13T09:11:03.566Z,74.60
2023-01-13T09:12:05.771Z,75.85
2023-01-13T09:13:09.008Z,74.93
2023-01-13T09:14:10.734Z,74.91
2023-01-13T09:15:13.125Z,76.20
2023-01-13T09:16:14.951Z,77.05
2023-01-13T09:17:16.835Z,77.52
2023-01-13T09:18:18.508Z,77.80
2023-01-13T09:19:20.232Z,77.28
2023-01-13T09:20:21.914Z,77.17
2023-01-13T09:21:23.690Z,77.57
2023-01-13T09:22:25.355Z,77.91
2023-01-13T09:23:27.068Z,77.98
2023-01-13T09:24:29.416Z,76.93
2023-01-13T09:25:31.704Z,77.18
2023-01-13T09:26:33.581Z,78.02
2023-01-13T09:27:35.384Z,78.37
2023-01-13T09:28:37.183Z,77.69
2023-01-13T09:29:39.069Z,78.08
2023-01-13T09:30:40.764Z,78.19
2023-01-13T09:31:44.376Z,78.49
2023-01-13T09:32:46.259Z,78.17
2023-01-13T09:33:48.129Z,78.28
2023-01-13T09:34:49.902Z,78.63
2023-01-13T09:35:51.601Z,78.16
2023-01-13T09:36:54.297Z,77.63
2023-01-13T09:37:56.231Z,77.89
2023-01-13T09:38:57.990Z,77.25
2023-01-13T09:40:00.442Z,77.56
2023-01-13T09:41:02.409Z,78.16
2023-01-13T09:42:28.097Z,78.35
2023-01-13T09:43:38.394Z,78.58
2023-01-13T09:44:46.980Z,78.51
2023-01-13T09:45:57.709Z,78.17
2023-01-13T09:47:04.528Z,78.16
2023-01-13T09:48:29.222Z,78.54
2023-01-13T09:49:38.768Z,77.99
2023-01-13T09:50:51.012Z,78.25
2023-01-13T09:52:02.829Z,77.76
2023-01-13T09:53:13.089Z,78.33
2023-01-13T09:54:43.029Z,78.27
2023-01-13T09:55:44.874Z,77.53
2023-01-13T09:56:46.708Z,77.63
2023-01-13T09:57:48.763Z,77.34
2023-01-13T09:58:50.627Z,76.67
2023-01-13T09:59:52.475Z,76.26
2023-01-13T10:01:29.822Z,75.69
2023-01-13T10:02:42.582Z,75.92
2023-01-13T10:03:45.025Z,75.87
2023-01-13T10:05:11.717Z,76.02
2023-01-13T10:06:15.869Z,75.94
2023-01-13T10:07:17.743Z,75.96
2023-01-13T10:08:49.165Z,76.25
2023-01-13T10:09:53.761Z,76.44
2023-01-13T10:11:01.024Z,76.52
2023-01-13T10:12:03.216Z,76.51
2023-01-13T10:13:37.119Z,76.82
2023-01-13T10:14:42.987Z,77.13
2023-01-13T10:16:05.975Z,77.78
2023-01-13T10:17:13.478Z,77.79
2023-01-13T10:19:07.643Z,76.63
2023-01-13T10:20:18.043Z,76.67
2023-01-13T10:21:48.269Z,77.22
2023-01-13T10:23:26.801Z,76.50
2023-01-13T10:25:06.187Z,76.49
2023-01-13T10:26:46.536Z,76.12
2023-01-13T10:27:51.419Z,76.26
2023-01-13T10:28:54.854Z,76.04
2023-01-13T10:29:56.589Z,76.43
2023-01-13T10:30:58.342Z,76.80
2023-01-13T10:32:00.781Z,76.75
2023-01-13T10:33:12.116Z,76.35
2023-01-13T10:34:13.993Z,76.30
2023-01-13T10:35:15.944Z,75.57
2023-01-13T10:36:18.866Z,74.42
2023-01-13T10:37:24.076Z,75.17
2023-01-13T10:38:31.525Z,75.66
2023-01-13T10:39:42.695Z,75.39
2023-01-13T10:40:54.066Z,75.69
2023-01-13T10:42:04.432Z,75.45
2023-01-13T10:43:06.284Z,75.78
2023-01-13T10:44:17.287Z,76.11
2023-01-13T10:45:25.682Z,74.95
2023-01-13T10:46:28.909Z,74.16
2023-01-13T10:47:36.081Z,74.23
2023-01-13T10:48:43.456Z,74.16
2023-01-13T10:50:03.302Z,74.01
2023-01-13T10:51:18.850Z,73.54
2023-01-13T10:52:30.337Z,74.00
2023-01-13T10:53:32.235Z,73.93
2023-01-13T10:54:35.765Z,74.21
2023-01-13T10:55:37.464Z,74.25
2023-01-13T10:56:44.868Z,74.00
2023-01-13T10:57:46.537Z,74.27
2023-01-13T10:58:48.669Z,74.43
2023-01-13T10:59:51.230Z,73.99
2023-01-13T11:01:05.520Z,73.79
2023-01-13T11:02:26.521Z,73.87
2023-01-13T11:03:42.049Z,74.17
2023-01-13T11:04:54.479Z,74.68
2023-01-13T11:05:59.269Z,75.05
2023-01-13T11:07:02.602Z,75.14
2023-01-13T11:08:05.238Z,75.03
2023-01-13T11:09:19.927Z,74.30
2023-01-13T11:10:27.134Z,74.73
2023-01-13T11:11:43.230Z,74.17
2023-01-13T11:13:02.886Z,72.84
2023-01-13T11:14:20.458Z,73.35
2023-01-13T11:15:31.690Z,73.64
2023-01-13T11:16:35.850Z,73.44
2023-01-13T11:17:47.470Z,73.88
2023-01-13T11:18:58.675Z,73.37
2023-01-13T11:20:23.339Z,73.93
2023-01-13T11:21:30.251Z,73.89
2023-01-13T11:22:37.210Z,74.45
2023-01-13T11:23:48.977Z,74.15
2023-01-13T11:24:58.996Z,73.90
2023-01-13T11:26:36.940Z,74.78
2023-01-13T11:27:40.694Z,74.06
2023-01-13T11:28:46.437Z,73.58
2023-01-13T11:30:03.827Z,73.08
2023-01-13T11:31:28.104Z,73.81
2023-01-13T11:32:35.607Z,73.54
2023-01-13T11:33:52.426Z,73.72
2023-01-13T11:35:00.547Z,75.21
2023-01-13T11:36:11.056Z,74.29
2023-01-13T11:37:21.449Z,74.51
2023-01-13T11:38:37.485Z,74.86
2023-01-13T11:39:52.545Z,74.95
2023-01-13T11:40:57.346Z,75.25
2023-01-13T11:42:11.364Z,75.29
2023-01-13T11:43:25.776Z,76.09
2023-01-13T11:44:40.242Z,76.58
2023-01-13T11:46:01.049Z,77.06
2023-01-13T11:47:02.747Z,76.69
2023-01-13T11:48:04.947Z,76.55
2023-01-13T11:49:09.165Z,76.31
2023-01-13T11:50:33.611Z,75.61
2023-01-13T11:51:43.399Z,75.32
2023-01-13T11:52:48.213Z,75.46
2023-01-13T11:53:59.251Z,75.44
2023-01-13T11:55:23.288Z,75.53
2023-01-13T11:56:43.008Z,75.65
2023-01-13T11:58:19.507Z,75.53
2023-01-13T11:59:39.820Z,75.75
2023-01-13T12:01:14.090Z,75.35
2023-01-13T12:02:44.866Z,75.26
2023-01-13T12:03:59.173Z,75.03
2023-01-13T12:05:25.205Z,74.96
2023-01-13T12:06:39.789Z,74.91
2023-01-13T12:07:50.871Z,75.00
2023-01-13T12:09:26.255Z,75.00
2023-01-13T12:10:53.506Z,74.30
2023-01-13T12:12:12.995Z,73.82
2023-01-13T12:13:46.352Z,74.10
2023-01-13T12:14:53.676Z,73.33
2023-01-13T12:16:03.171Z,73.49
2023-01-13T12:17:16.273Z,72.97
2023-01-13T12:18:45.704Z,72.86
2023-01-13T12:19:50.211Z,72.39
2023-01-13T12:21:14.025Z,73.10
2023-01-13T12:22:32.003Z,72.51
2023-01-13T12:23:55.500Z,72.67
2023-01-13T12:25:13.202Z,72.68
2023-01-13T12:26:16.934Z,72.58
2023-01-13T12:27:18.575Z,72.90
2023-01-13T12:28:41.303Z,73.01
2023-01-13T12:29:44.502Z,73.29
2023-01-13T12:30:51.255Z,73.79
2023-01-13T12:31:53.147Z,74.06
2023-01-13T12:33:03.740Z,74.15
2023-01-13T12:34:26.897Z,74.42
2023-01-13T12:36:02.442Z,73.95
2023-01-13T12:37:22.381Z,73.96
2023-01-13T12:38:36.326Z,73.97
2023-01-13T12:39:56.158Z,73.79
2023-01-13T12:41:15.862Z,73.90
2023-01-13T12:42:24.189Z,74.39
2023-01-13T12:43:26.105Z,74.82
2023-01-13T12:44:27.816Z,75.26
2023-01-13T12:45:31.891Z,75.14
2023-01-13T12:46:35.267Z,75.09
2023-01-13T12:47:38.076Z,75.13
2023-01-13T12:48:51.965Z,75.06
2023-01-13T12:50:22.370Z,75.31
2023-01-13T12:51:29.425Z,75.11
2023-01-13T12:52:44.016Z,75.19
2023-01-13T12:53:45.787Z,75.27
2023-01-13T12:54:47.437Z,75.10
2023-01-13T12:55:52.655Z,74.69
2023-01-13T12:56:54.533Z,74.54
2023-01-13T12:57:57.616Z,75.00
2023-01-13T12:59:32.569Z,75.30
2023-01-13T13:00:40.163Z,75.31
2023-01-13T13:01:41.975Z,75.46
2023-01-13T13:03:12.629Z,75.83
2023-01-13T13:04:19.549Z,76.00
2023-01-13T13:05:23.808Z,75.69
2023-01-13T13:06:31.287Z,75.03
2023-01-13T13:07:41.459Z,75.21
2023-01-13T13:09:09.392Z,75.49
2023-01-13T13:10:19.974Z,75.75
2023-01-13T13:11:35.692Z,75.56
2023-01-13T13:12:43.390Z,75.66
2023-01-13T13:13:48.703Z,75.79
2023-01-13T13:14:50.523Z,76.47
2023-01-13T13:16:34.271Z,76.73
2023-01-13T13:17:35.967Z,76.39
2023-01-13T13:18:37.749Z,76.13
2023-01-13T13:19:41.001Z,76.54
2023-01-13T13:21:03.820Z,76.96
2023-01-13T13:22:12.135Z,77.88
2023-01-13T13:23:29.001Z,77.79
2023-01-13T13:24:30.933Z,77.55
2023-01-13T13:25:32.741Z,77.56
2023-01-13T13:26:43.891Z,77.60
2023-01-13T13:28:00.290Z,77.39
2023-01-13T13:29:26.725Z,77.54
2023-01-13T13:30:35.747Z,77.87
2023-01-13T13:31:56.022Z,77.78
2023-01-13T13:33:35.044Z,77.35
2023-01-13T13:34:36.764Z,77.07
2023-01-13T13:35:50.708Z,77.16
2023-01-13T13:36:58.337Z,77.52
2023-01-13T13:38:20.617Z,77.59
2023-01-13T13:39:28.915Z,77.65
2023-01-13T13:40:39.388Z,77.85
2023-01-13T13:41:46.368Z,77.80
2023-01-13T13:42:57.874Z,78.03
2023-01-13T13:44:22.650Z,78.12
2023-01-13T13:45:26.530Z,77.88
2023-01-13T13:46:33.532Z,78.08
2023-01-13T13:47:39.327Z,78.23
2023-01-13T13:48:51.367Z,78.01
2023-01-13T13:49:53.620Z,78.34
2023-01-13T13:50:58.749Z,78.32
2023-01-13T13:52:05.668Z,78.33
2023-01-13T13:53:08.195Z,78.15
2023-01-13T13:54:13.568Z,78.07
2023-01-13T13:55:19.689Z,78.19
2023-01-13T13:56:27.803Z,78.37
2023-01-13T13:57:39.443Z,78.44
2023-01-13T13:58:41.750Z,78.29
2023-01-13T13:59:43.484Z,77.93
2023-01-13T14:00:48.097Z,77.81
2023-01-13T14:01:56.179Z,77.78
2023-01-13T14:03:01.262Z,78.03
2023-01-13T14:04:25.054Z,77.98
2023-01-13T14:05:29.702Z,78.02
2023-01-13T14:06:31.519Z,78.23
2023-01-13T14:07:42.948Z,78.77
2023-01-13T14:08:49.913Z,78.70
2023-01-13T14:09:54.715Z,78.75
2023-01-13T14:10:56.775Z,78.95
2023-01-13T14:11:58.425Z,78.60
2023-01-13T14:13:15.049Z,78.61
2023-01-13T14:14:16.689Z,78.93
2023-01-13T14:15:36.965Z,79.28
2023-01-13T14:16:40.527Z,79.16
2023-01-13T14:17:42.327Z,79.18
2023-01-13T14:18:47.249Z,79.23
2023-01-13T14:19:55.683Z,79.05
2023-01-13T14:21:05.106Z,78.97
2023-01-13T14:22:06.836Z,78.79
2023-01-13T14:23:17.053Z,78.75